< < Back
Terminal Aerodrome Forecast


Current Version              Previous Versions:   1  2  3  4  5  6  7  8  9  

Terminal Aerodrome Forecast

246
FTUS42 KTAE 302327
TAFDHN
TAF
KDHN 302327Z 3100/3124 VRB15G25KT P6SM VCTS SCT040CB
      TEMPO 3100/3102 VRB20G30KT 2SM +TSRA BKN040CB
     FM310300 23005KT P6SM SCT100 BKN250
     FM311000 25003KT 6SM BR BKN003
     FM311400 23006KT P6SM SCT025
     FM312100 23008KT P6SM VCTS SCT040CB=



Latest METAR

872
SAUS70 KWBC 311900 RRB
MTRDHN
METAR KDHN 311853Z VRB03KT 10SM FEW060 34/23 A2992 RMK AO2 LTG DSNT W
AND NW SLP126 T03440233


USA.gov is the U.S. government's official web portal to all federal, state and local government web resources and services.